Time;durP1;ratioP1;P1;durP2;ratioP2;P2;SDS_P1;SDS_P2;PMS_P1;PMS_P2;Temp;Humidity;BMP_temperature;BMP_pressure;BME280_temperature;BME280_humidity;BME280_pressure;Samples;Min_cycle;Max_cycle;Signal;HPM_P1;HPM_P2
2022/08/07 00:00:44;;;;;;;6.40;5.75;;;;;;;24.02;64.55;94234.72;5056086;22;20296;-63
2022/08/07 00:03:10;;;;;;;5.18;4.68;;;;;;;23.96;64.16;94246.78;5049720;28;20324;-63
2022/08/07 00:05:36;;;;;;;6.75;5.50;;;;;;;23.93;64.13;94246.44;5050122;28;20205;-60
2022/08/07 00:08:02;;;;;;;6.40;4.95;;;;;;;23.78;64.19;94240.84;5050968;28;20659;-61
2022/08/07 00:10:29;;;;;;;5.55;4.95;;;;;;;23.77;64.75;94234.88;5053504;28;20221;-64
2022/08/07 00:12:54;;;;;;;5.20;4.70;;;;;;;23.76;64.41;94238.47;5053393;28;20595;-61
2022/08/07 00:15:20;;;;;;;6.20;4.95;;;;;;;23.62;64.65;94234.47;5053486;28;20198;-60
2022/08/07 00:17:45;;;;;;;5.20;4.70;;;;;;;23.62;64.92;94238.88;5053276;28;20189;-60
2022/08/07 00:20:10;;;;;;;5.68;5.07;;;;;;;23.62;64.62;94233.69;5052457;28;20347;-61
2022/08/07 00:22:36;;;;;;;6.47;5.20;;;;;;;23.56;65.16;94229.34;5053305;28;20629;-63
2022/08/07 00:25:04;;;;;;;5.97;5.05;;;;;;;23.38;65.70;94226.78;5035223;28;20198;-63
2022/08/07 00:27:29;;;;;;;7.00;5.07;;;;;;;23.47;65.41;94238.47;5053177;28;20201;-62
2022/08/07 00:29:55;;;;;;;4.80;4.40;;;;;;;23.42;65.72;94231.34;5052921;28;20201;-62
2022/08/07 00:32:20;;;;;;;6.05;5.00;;;;;;;23.25;66.43;94238.13;5053260;28;20586;-65
2022/08/07 00:34:48;;;;;;;8.68;4.97;;;;;;;23.21;67.50;94224.00;5053136;28;20272;-64
2022/08/07 00:37:16;;;;;;;5.25;4.85;;;;;;;23.16;67.41;94227.22;5052775;28;20232;-64
2022/08/07 00:39:42;;;;;;;6.50;4.35;;;;;;;23.20;67.19;94230.19;5053069;28;20273;-64
2022/08/07 00:42:08;;;;;;;5.78;5.25;;;;;;;23.37;66.43;94235.59;5052987;28;20297;-62
2022/08/07 00:44:34;;;;;;;7.25;4.88;;;;;;;23.41;65.92;94242.75;5034981;28;20267;-62
2022/08/07 00:47:05;;;;;;;6.30;4.93;;;;;;;23.38;65.96;94237.97;5052718;28;20198;-64
2022/08/07 00:49:30;;;;;;;6.00;5.20;;;;;;;23.22;67.53;94238.53;5034777;28;20193;-60
2022/08/07 00:51:56;;;;;;;7.82;5.18;;;;;;;23.30;67.86;94220.06;5052582;28;20244;-59
2022/08/07 00:54:23;;;;;;;6.15;4.47;;;;;;;23.47;66.24;94246.25;5052962;28;20264;-60
2022/08/07 00:56:49;;;;;;;6.45;4.40;;;;;;;23.48;65.88;94243.44;5052755;28;20213;-65
2022/08/07 00:59:16;;;;;;;5.95;4.90;;;;;;;23.37;66.41;94239.00;5052659;28;20629;-64
2022/08/07 01:01:41;;;;;;;5.35;4.85;;;;;;;23.42;65.87;94246.91;5034047;28;20296;-64
2022/08/07 01:04:07;;;;;;;5.15;4.53;;;;;;;23.28;66.45;94248.84;5051731;28;20274;-60
2022/08/07 01:06:33;;;;;;;7.55;5.43;;;;;;;23.26;66.59;94243.06;5051102;28;20224;-62
2022/08/07 01:09:00;;;;;;;5.15;4.35;;;;;;;23.16;67.08;94237.59;5052696;28;20771;-62
2022/08/07 01:11:26;;;;;;;6.50;5.35;;;;;;;23.19;67.44;94233.78;5034482;28;20256;-64
2022/08/07 01:13:52;;;;;;;5.53;5.03;;;;;;;23.12;68.26;94225.28;5033361;28;20239;-62
2022/08/07 01:16:18;;;;;;;5.07;4.57;;;;;;;23.11;67.95;94229.66;5034359;28;20240;-64
2022/08/07 01:18:43;;;;;;;6.13;4.75;;;;;;;23.04;67.99;94239.34;5052172;28;20194;-60
2022/08/07 01:21:14;;;;;;;5.63;4.75;;;;;;;22.90;69.51;94239.69;5052261;28;20262;-64
2022/08/07 01:23:42;;;;;;;7.30;4.60;;;;;;;22.94;68.76;94236.44;5052303;28;20533;-63
2022/08/07 01:26:10;;;;;;;6.03;4.93;;;;;;;22.84;69.35;94238.75;5034103;28;20220;-64
2022/08/07 01:28:37;;;;;;;5.50;4.97;;;;;;;22.81;69.87;94235.75;5051931;28;20239;-64
2022/08/07 01:31:02;;;;;;;5.13;4.72;;;;;;;22.98;69.52;94250.56;5051956;28;20209;-64
2022/08/07 01:33:28;;;;;;;5.40;4.68;;;;;;;22.79;71.37;94228.22;5051975;28;20217;-64
2022/08/07 01:35:56;;;;;;;6.47;5.57;;;;;;;22.71;71.89;94228.50;5052157;28;20291;-62
2022/08/07 01:38:23;;;;;;;5.00;4.50;;;;;;;22.97;69.63;94251.56;5033926;28;20192;-64
2022/08/07 01:40:49;;;;;;;5.72;5.03;;;;;;;22.96;69.70;94255.19;5052135;28;20218;-61
2022/08/07 01:43:15;;;;;;;5.68;4.88;;;;;;;22.88;70.03;94255.47;5050807;28;20177;-64
2022/08/07 01:45:42;;;;;;;5.32;4.80;;;;;;;22.87;70.37;94253.84;5034020;28;20217;-60
2022/08/07 01:48:07;;;;;;;6.75;4.95;;;;;;;22.85;70.68;94255.88;5051700;28;20606;-64
2022/08/07 01:50:36;;;;;;;5.00;4.50;;;;;;;22.65;71.83;94251.88;5051768;28;20205;-59
2022/08/07 01:53:02;;;;;;;8.48;4.97;;;;;;;22.62;72.33;94267.88;5051670;28;20206;-63
2022/08/07 01:55:35;;;;;;;8.80;5.00;;;;;;;22.62;73.78;94293.78;5051622;28;20300;-60
2022/08/07 01:58:05;;;;;;;5.70;5.20;;;;;;;22.52;74.96;94317.56;5051699;28;20694;-64
2022/08/07 02:00:34;;;;;;;6.32;5.72;;;;;;;22.51;75.14;94341.84;5051695;28;20209;-60
2022/08/07 02:03:04;;;;;;;5.68;5.18;;;;;;;22.87;74.62;94342.00;5052016;28;20661;-64
2022/08/07 02:05:52;;;;;;;8.45;5.47;;;;;;;22.73;75.44;94332.75;5052041;28;20304;-65
2022/08/07 02:08:22;;;;;;;6.72;5.43;;;;;;;22.82;75.18;94344.47;5050783;28;20690;-64
2022/08/07 02:10:52;;;;;;;8.57;5.50;;;;;;;22.79;75.21;94347.47;5033611;28;20300;-62
2022/08/07 02:13:22;;;;;;;8.30;5.35;;;;;;;22.83;75.02;94350.41;5033471;28;20206;-64
2022/08/07 02:15:49;;;;;;;5.93;4.95;;;;;;;22.85;76.00;94351.78;5051701;28;20213;-62
2022/08/07 02:18:15;;;;;;;8.40;5.85;;;;;;;22.88;78.52;94351.38;5051228;28;20185;-63
2022/08/07 02:20:43;;;;;;;6.15;5.32;;;;;;;23.01;81.23;94364.22;5051562;28;20216;-60
2022/08/07 02:23:10;;;;;;;7.28;6.13;;;;;;;22.72;83.49;94346.72;5051284;28;20182;-60
2022/08/07 02:25:39;;;;;;;8.65;6.32;;;;;;;22.90;83.99;94348.56;5051189;28;20331;-61
2022/08/07 02:28:05;;;;;;;8.20;6.30;;;;;;;22.71;83.36;94349.50;5051205;28;20189;-63
2022/08/07 02:30:33;;;;;;;10.77;6.65;;;;;;;22.57;86.68;94330.66;5050563;28;20221;-63
2022/08/07 02:33:00;;;;;;;10.43;6.85;;;;;;;22.65;86.71;94330.44;5050897;28;20267;-63
2022/08/07 02:35:27;;;;;;;9.77;6.78;;;;;;;22.39;88.29;94315.84;5051245;28;20209;-64
2022/08/07 02:37:56;;;;;;;8.88;7.40;;;;;;;22.49;90.80;94310.19;5051016;28;20177;-64
2022/08/07 02:40:22;;;;;;;8.05;6.35;;;;;;;22.11;88.12;94302.47;5033159;28;20272;-63
2022/08/07 02:42:49;;;;;;;7.78;6.97;;;;;;;22.01;89.58;94275.44;5051136;28;20306;-62
2022/08/07 02:45:17;;;;;;;10.18;6.55;;;;;;;21.75;91.28;94261.63;5032961;28;20190;-60
2022/08/07 02:47:43;;;;;;;11.15;7.15;;;;;;;21.61;93.51;94265.25;5050834;28;20585;-61
2022/08/07 02:50:09;;;;;;;9.93;6.80;;;;;;;21.55;93.59;94260.91;5051298;28;20177;-64
2022/08/07 02:52:40;;;;;;;6.97;6.15;;;;;;;21.46;94.95;94257.00;5050955;28;20220;-62
2022/08/07 02:55:19;;;;;;;6.97;6.35;;;;;;;21.53;95.15;94262.91;5051154;28;20606;-63
2022/08/07 02:57:46;;;;;;;6.72;6.13;;;;;;;21.63;95.43;94259.91;5033156;28;20186;-62
2022/08/07 03:00:12;;;;;;;8.43;6.25;;;;;;;21.60;96.13;94261.09;5033094;28;20189;-64
2022/08/07 03:02:41;;;;;;;7.78;6.25;;;;;;;21.51;96.71;94257.16;5032778;28;20197;-61
2022/08/07 03:05:09;;;;;;;9.10;6.07;;;;;;;21.67;96.39;94255.91;5050793;28;20197;-62
2022/08/07 03:07:35;;;;;;;7.05;6.35;;;;;;;21.72;96.23;94256.06;5050754;28;20213;-63
2022/08/07 03:10:02;;;;;;;6.88;6.18;;;;;;;21.81;95.73;94262.63;5050964;28;20178;-63
2022/08/07 03:12:28;;;;;;;6.35;5.68;;;;;;;22.02;95.45;94261.50;5050665;28;20221;-59
2022/08/07 03:14:57;;;;;;;7.55;6.80;;;;;;;22.10;95.76;94262.03;5050954;28;20640;-61
2022/08/07 03:17:23;;;;;;;6.47;5.88;;;;;;;22.21;95.86;94257.97;5032648;28;20292;-60
2022/08/07 03:19:49;;;;;;;6.60;6.00;;;;;;;22.23;96.20;94255.97;5050734;28;20284;-64
2022/08/07 03:22:16;;;;;;;6.72;6.10;;;;;;;22.20;96.07;94259.00;5032629;28;20228;-64
2022/08/07 03:24:41;;;;;;;6.75;5.88;;;;;;;22.23;98.12;94243.03;5050780;28;20196;-61
2022/08/07 03:27:07;;;;;;;8.85;6.95;;;;;;;22.22;98.84;94246.63;5050372;28;20205;-61
2022/08/07 03:29:44;;;;;;;6.68;6.07;;;;;;;22.09;100.00;94251.91;5050257;28;20189;-61
2022/08/07 03:32:11;;;;;;;6.80;6.15;;;;;;;22.03;100.00;94252.72;5050437;28;20239;-65
2022/08/07 03:34:38;;;;;;;6.97;6.00;;;;;;;21.83;100.00;94249.47;5050742;28;20255;-63
2022/08/07 03:37:07;;;;;;;6.88;6.18;;;;;;;21.73;100.00;94258.44;5050274;28;20777;-64
2022/08/07 03:39:35;;;;;;;7.07;6.40;;;;;;;21.90;100.00;94261.38;5050448;28;20228;-59
2022/08/07 03:42:03;;;;;;;7.10;6.40;;;;;;;21.82;100.00;94260.81;5051556;28;20221;-61
2022/08/07 03:44:29;;;;;;;7.13;6.45;;;;;;;22.12;100.00;94261.84;5053656;28;20204;-63
2022/08/07 03:46:55;;;;;;;8.27;6.70;;;;;;;22.29;100.00;94268.88;5053602;28;20569;-62
2022/08/07 03:49:20;;;;;;;6.95;6.25;;;;;;;22.12;100.00;94267.03;5035959;28;20250;-63
2022/08/07 03:51:47;;;;;;;6.57;6.03;;;;;;;22.42;100.00;94288.72;5053410;28;20209;-63
2022/08/07 03:54:13;;;;;;;8.98;7.45;;;;;;;22.40;100.00;94301.09;5053926;28;20190;-63
2022/08/07 03:56:40;;;;;;;7.13;6.43;;;;;;;22.18;100.00;94279.91;5035421;28;20209;-64
2022/08/07 03:59:06;;;;;;;8.38;7.40;;;;;;;21.86;100.00;94282.69;5053592;28;20275;-60
2022/08/07 04:01:34;;;;;;;7.40;6.70;;;;;;;21.60;100.00;94284.41;5053320;28;20216;-63
2022/08/07 04:04:00;;;;;;;8.50;7.15;;;;;;;21.72;100.00;94300.06;5053418;28;20189;-63
2022/08/07 04:06:25;;;;;;;9.35;6.43;;;;;;;21.89;100.00;94296.03;5053293;28;20212;-63
2022/08/07 04:08:51;;;;;;;9.90;9.00;;;;;;;22.00;100.00;94299.78;5053267;28;20221;-63
2022/08/07 04:11:17;;;;;;;10.70;7.95;;;;;;;22.12;100.00;94309.22;5053414;28;20206;-66
2022/08/07 04:13:44;;;;;;;7.10;6.38;;;;;;;22.27;100.00;94312.34;5053203;28;20225;-63
2022/08/07 04:16:09;;;;;;;7.03;6.43;;;;;;;22.70;99.06;94335.78;5053222;28;20747;-64
2022/08/07 04:18:35;;;;;;;9.10;6.78;;;;;;;22.79;98.45;94347.47;5053353;28;20264;-60
2022/08/07 04:21:00;;;;;;;6.65;6.05;;;;;;;22.68;99.18;94334.41;5053034;28;20267;-63
2022/08/07 04:23:27;;;;;;;11.98;8.52;;;;;;;22.46;100.00;94306.22;5053278;28;20186;-60
2022/08/07 04:25:52;;;;;;;9.07;7.65;;;;;;;22.31;100.00;94305.72;5052194;28;20217;-64
2022/08/07 04:28:19;;;;;;;8.18;6.30;;;;;;;22.55;100.00;94317.13;5053091;28;20275;-64
2022/08/07 04:30:48;;;;;;;7.78;6.97;;;;;;;22.51;100.00;94328.91;5059125;22;20694;-64
2022/08/07 04:33:13;;;;;;;7.85;7.15;;;;;;;22.61;100.00;94342.22;5052871;28;20213;-63
2022/08/07 04:35:40;;;;;;;8.48;7.68;;;;;;;22.50;100.00;94327.34;5052736;28;20216;-60
2022/08/07 04:38:06;;;;;;;8.73;7.25;;;;;;;22.58;100.00;94324.50;5052830;28;20648;-60
2022/08/07 04:40:33;;;;;;;9.25;7.00;;;;;;;22.61;100.00;94316.31;5053006;28;20624;-63
2022/08/07 04:42:58;;;;;;;9.52;7.60;;;;;;;22.64;100.00;94331.44;5052888;28;20200;-61
2022/08/07 04:45:33;;;;;;;7.68;6.88;;;;;;;22.62;100.00;94324.88;5053147;28;20558;-63
2022/08/07 04:48:37;;;;;;;8.55;7.70;;;;;;;22.51;100.00;94316.75;5052872;28;20646;-61
2022/08/07 04:51:08;;;;;;;9.63;7.45;;;;;;;22.49;100.00;94313.56;4952703;29;20224;-60
2022/08/07 04:53:40;;;;;;;12.27;7.75;;;;;;;22.56;100.00;94321.31;4952066;28;20248;-65
2022/08/07 04:56:39;;;;;;;10.77;9.05;;;;;;;22.55;100.00;94336.06;5016323;23;20241;-64
2022/08/07 04:59:17;;;;;;;31.35;22.70;;;;;;;22.54;100.00;94323.31;5032672;28;20229;-62
2022/08/07 05:01:53;;;;;;;19.75;16.05;;;;;;;22.54;100.00;94357.78;5032682;28;20255;-62
2022/08/07 05:04:35;;;;;;;12.57;10.10;;;;;;;22.53;100.00;94353.63;5032836;28;20205;-61
2022/08/07 05:07:11;;;;;;;10.57;7.80;;;;;;;22.57;100.00;94361.75;5032671;28;20703;-60
2022/08/07 05:09:48;;;;;;;11.70;9.48;;;;;;;22.62;100.00;94361.97;5032996;28;20194;-62
2022/08/07 05:12:18;;;;;;;9.77;7.95;;;;;;;22.60;100.00;94369.16;5032517;28;20217;-60
2022/08/07 05:14:47;;;;;;;8.00;7.20;;;;;;;22.62;100.00;94356.78;5032943;28;20201;-59
2022/08/07 05:17:14;;;;;;;9.38;7.47;;;;;;;22.67;100.00;94364.69;5032284;28;20210;-60
2022/08/07 05:19:44;;;;;;;9.60;7.65;;;;;;;22.58;100.00;94354.81;5032657;28;20194;-58
2022/08/07 05:22:12;;;;;;;9.73;8.77;;;;;;;22.64;100.00;94344.41;5032486;28;20210;-62
2022/08/07 05:24:39;;;;;;;11.55;8.77;;;;;;;22.84;100.00;94373.56;5032432;28;20269;-62
2022/08/07 05:27:07;;;;;;;9.95;8.52;;;;;;;22.81;100.00;94360.19;5032345;28;20206;-60
2022/08/07 05:29:37;;;;;;;9.43;8.40;;;;;;;22.93;100.00;94379.25;5032552;28;20198;-60
2022/08/07 05:32:05;;;;;;;9.13;8.20;;;;;;;23.05;100.00;94388.72;5032142;28;20348;-62
2022/08/07 05:34:31;;;;;;;9.10;8.20;;;;;;;23.11;100.00;94393.06;5014581;28;20216;-61
2022/08/07 05:36:57;;;;;;;9.43;7.65;;;;;;;23.28;98.96;94396.72;5014237;28;20272;-61
2022/08/07 05:39:23;;;;;;;10.85;7.35;;;;;;;23.45;98.20;94404.78;5032132;28;20186;-63
2022/08/07 05:41:50;;;;;;;10.52;8.10;;;;;;;23.27;98.46;94397.72;5032135;28;20710;-64
2022/08/07 05:44:19;;;;;;;10.32;7.97;;;;;;;23.31;98.75;94405.88;5032089;28;20190;-63
2022/08/07 05:46:48;;;;;;;9.60;7.85;;;;;;;23.46;98.24;94418.53;5014080;28;20222;-64
2022/08/07 05:49:14;;;;;;;11.45;8.25;;;;;;;23.40;97.16;94422.78;5032036;28;20717;-64
2022/08/07 05:51:44;;;;;;;10.63;8.00;;;;;;;23.31;96.85;94430.03;5031707;28;20305;-62
2022/08/07 05:54:10;;;;;;;9.55;8.10;;;;;;;23.44;95.69;94447.31;5032228;28;20194;-64
2022/08/07 05:56:39;;;;;;;18.13;15.90;;;;;;;23.45;95.77;94446.31;5031550;28;20688;-64
2022/08/07 05:59:08;;;;;;;15.48;10.57;;;;;;;23.55;95.62;94451.81;5031899;28;20194;-65
2022/08/07 06:01:35;;;;;;;15.30;8.65;;;;;;;23.65;94.13;94475.47;5031517;28;20236;-64
2022/08/07 06:04:03;;;;;;;12.75;8.55;;;;;;;23.72;93.66;94480.59;5031629;28;20186;-65
2022/08/07 06:06:28;;;;;;;9.20;8.30;;;;;;;23.71;93.55;94466.81;5030211;28;20224;-64
2022/08/07 06:08:55;;;;;;;9.18;8.27;;;;;;;23.73;93.14;94470.00;5031600;28;20571;-64
2022/08/07 06:11:21;;;;;;;10.45;7.95;;;;;;;23.92;90.81;94501.97;5031458;28;20202;-60
2022/08/07 06:13:47;;;;;;;9.18;7.63;;;;;;;23.90;90.65;94496.97;5031517;28;20232;-60
2022/08/07 06:16:14;;;;;;;7.50;6.65;;;;;;;23.83;89.46;94511.06;5031456;28;20703;-62
2022/08/07 06:18:40;;;;;;;7.30;6.43;;;;;;;23.88;87.89;94529.38;5031674;28;20209;-64
2022/08/07 06:21:06;;;;;;;8.27;6.95;;;;;;;23.86;87.36;94531.38;5031347;28;20288;-61
2022/08/07 06:23:32;;;;;;;11.93;10.00;;;;;;;24.02;88.44;94510.03;5031403;28;20190;-62
2022/08/07 06:25:59;;;;;;;10.40;9.15;;;;;;;24.01;87.95;94511.06;5031018;28;20202;-62
2022/08/07 06:28:25;;;;;;;11.60;8.77;;;;;;;24.15;92.53;94447.59;5031127;28;20197;-63
2022/08/07 06:30:50;;;;;;;8.35;7.57;;;;;;;24.52;93.57;94456.94;5031246;28;20206;-63
2022/08/07 06:33:16;;;;;;;7.75;6.93;;;;;;;24.71;90.36;94489.69;5030895;28;20241;-59
2022/08/07 06:35:42;;;;;;;9.27;7.25;;;;;;;24.95;90.59;94491.38;5030960;28;20217;-59
2022/08/07 06:38:07;;;;;;;8.10;7.25;;;;;;;25.02;84.82;94573.75;5031094;28;20240;-63
2022/08/07 06:40:39;;;;;;;8.80;7.05;;;;;;;24.92;82.97;94579.47;5031201;28;20246;-64
2022/08/07 06:43:07;;;;;;;8.85;6.88;;;;;;;24.83;82.72;94575.59;5031121;28;20224;-64
2022/08/07 06:45:33;;;;;;;10.85;7.82;;;;;;;24.86;82.25;94568.16;5031071;28;20272;-63
2022/08/07 06:47:59;;;;;;;7.68;7.00;;;;;;;25.05;84.97;94526.50;5031037;28;20193;-63
2022/08/07 06:50:26;;;;;;;7.72;6.97;;;;;;;25.32;84.08;94535.50;5030813;28;20213;-64
2022/08/07 06:52:54;;;;;;;7.28;6.57;;;;;;;25.52;81.93;94567.25;5013101;28;20651;-62
2022/08/07 06:55:26;;;;;;;7.60;6.65;;;;;;;25.72;79.92;94601.59;5013252;28;20230;-62
2022/08/07 06:57:57;;;;;;;7.93;7.13;;;;;;;25.90;77.73;94630.19;5012802;28;20194;-63
2022/08/07 07:00:23;;;;;;;8.18;7.10;;;;;;;25.99;79.07;94594.16;5013362;28;20675;-63
2022/08/07 07:02:49;;;;;;;8.82;8.00;;;;;;;25.85;77.73;94608.44;5030531;28;20193;-63
2022/08/07 07:05:19;;;;;;;14.73;8.25;;;;;;;25.81;78.14;94600.28;5031095;28;20186;-62
2022/08/07 07:07:45;;;;;;;7.70;6.53;;;;;;;26.02;75.37;94640.66;5030655;28;20217;-61
2022/08/07 07:10:12;;;;;;;19.55;10.45;;;;;;;25.97;76.65;94607.44;5030922;28;20289;-63
2022/08/07 07:12:53;;;;;;;9.02;7.15;;;;;;;25.94;77.32;94594.06;5030913;28;20332;-62
2022/08/07 07:15:30;;;;;;;8.25;7.45;;;;;;;26.06;75.75;94621.72;5030700;28;20257;-63
2022/08/07 07:18:12;;;;;;;11.32;7.75;;;;;;;26.21;76.04;94609.06;5033181;28;20726;-64
2022/08/07 07:20:58;;;;;;;10.45;7.47;;;;;;;26.35;77.62;94576.53;5016263;28;20224;-61
2022/08/07 07:23:25;;;;;;;8.35;7.45;;;;;;;26.39;75.78;94610.75;5058908;22;20221;-61
2022/08/07 07:25:54;;;;;;;9.35;6.88;;;;;;;26.33;74.74;94624.69;5054024;28;20258;-61
2022/08/07 07:28:23;;;;;;;8.93;7.00;;;;;;;26.35;74.44;94625.25;5054712;28;20189;-59
2022/08/07 07:30:54;;;;;;;7.47;6.78;;;;;;;26.06;74.49;94616.50;5054109;28;20260;-65
2022/08/07 07:33:21;;;;;;;11.88;7.63;;;;;;;26.02;74.71;94612.75;5054023;28;20213;-62
2022/08/07 07:35:50;;;;;;;8.38;7.50;;;;;;;26.27;73.72;94623.81;5053664;28;20206;-65
2022/08/07 07:38:18;;;;;;;9.15;7.60;;;;;;;26.14;75.56;94589.34;5054068;28;20197;-66
2022/08/07 07:40:45;;;;;;;8.10;7.30;;;;;;;26.32;74.61;94612.69;5053744;28;20216;-61
2022/08/07 07:43:12;;;;;;;9.43;8.35;;;;;;;26.40;71.83;94661.91;5035746;28;20192;-60
2022/08/07 07:45:39;;;;;;;7.80;7.10;;;;;;;26.55;71.41;94670.03;5059797;22;20229;-65
2022/08/07 07:48:07;;;;;;;9.05;7.15;;;;;;;26.59;71.58;94666.75;5053679;28;20259;-65
2022/08/07 07:50:33;;;;;;;8.07;7.15;;;;;;;26.63;70.08;94695.78;5053221;28;20238;-62
2022/08/07 07:53:01;;;;;;;7.05;6.40;;;;;;;26.84;69.16;94712.72;5053571;28;20209;-65
2022/08/07 07:55:28;;;;;;;9.93;8.38;;;;;;;26.89;68.59;94724.06;5053775;28;20236;-64
2022/08/07 07:57:55;;;;;;;13.07;9.98;;;;;;;26.88;68.07;94727.69;5053456;28;20200;-64
2022/08/07 08:00:24;;;;;;;22.83;12.07;;;;;;;26.74;66.82;94749.03;5053736;28;20682;-64
2022/08/07 08:02:54;;;;;;;25.23;16.70;;;;;;;26.83;66.84;94730.19;5053426;28;20185;-64
2022/08/07 08:05:21;;;;;;;18.90;14.20;;;;;;;26.74;66.15;94746.41;5035831;28;20679;-64
2022/08/07 08:07:47;;;;;;;17.00;12.48;;;;;;;26.53;66.31;94730.28;5053627;28;20189;-61
2022/08/07 08:10:14;;;;;;;14.38;11.93;;;;;;;26.73;66.67;94732.56;5053606;28;20190;-67
2022/08/07 08:12:40;;;;;;;20.75;18.50;;;;;;;26.95;65.99;94736.19;5053391;28;20212;-65
2022/08/07 08:15:07;;;;;;;16.33;14.35;;;;;;;26.86;67.15;94701.03;5053732;28;20203;-62
2022/08/07 08:17:34;;;;;;;14.52;13.02;;;;;;;27.11;65.33;94756.38;5059432;22;20741;-64
2022/08/07 08:20:04;;;;;;;10.50;9.50;;;;;;;27.17;66.41;94718.91;5053230;28;20298;-62
2022/08/07 08:28:04;;;;;;;11.98;9.23;;;;;;;27.52;64.72;94724.06;5032479;28;20584;-64
2022/08/07 08:30:33;;;;;;;8.52;7.72;;;;;;;27.70;63.93;94747.41;5033380;28;20304;-65
2022/08/07 08:33:01;;;;;;;13.57;12.27;;;;;;;27.75;62.18;94786.72;5033059;28;20210;-62
2022/08/07 08:35:28;;;;;;;9.00;8.10;;;;;;;27.80;60.43;94820.78;5033117;28;20214;-65
2022/08/07 08:38:00;;;;;;;9.00;8.10;;;;;;;27.68;61.71;94775.59;5015669;28;20667;-60
2022/08/07 08:40:33;;;;;;;9.15;7.75;;;;;;;27.89;59.72;94816.00;5033070;28;20241;-61
2022/08/07 08:43:14;;;;;;;9.18;8.13;;;;;;;27.94;60.52;94795.97;5033114;28;20256;-65
2022/08/07 08:46:17;;;;;;;8.18;7.38;;;;;;;28.06;60.84;94794.13;5015102;28;20225;-65
2022/08/07 08:48:58;;;;;;;11.30;10.27;;;;;;;28.05;61.11;94778.69;5029527;28;20210;-65
2022/08/07 08:51:27;;;;;;;16.85;15.07;;;;;;;28.21;60.69;94783.94;5015109;28;20241;-62
2022/08/07 08:54:05;;;;;;;7.97;7.22;;;;;;;28.43;58.95;94840.81;5014869;28;20221;-63
2022/08/07 08:56:41;;;;;;;8.95;8.07;;;;;;;28.59;58.13;94832.22;5014909;28;20224;-63
2022/08/07 08:59:25;;;;;;;8.00;7.28;;;;;;;28.54;58.08;94832.13;5032826;28;20684;-62
2022/08/07 09:02:05;;;;;;;9.30;7.43;;;;;;;28.43;60.09;94783.25;5032617;28;20313;-63
2022/08/07 09:04:49;;;;;;;10.73;7.35;;;;;;;28.60;58.88;94815.50;5032573;28;20178;-62
2022/08/07 09:07:30;;;;;;;8.27;7.47;;;;;;;28.57;57.66;94835.09;5014902;28;20237;-65
2022/08/07 09:10:37;;;;;;;7.65;6.95;;;;;;;28.80;55.40;94878.66;5032549;28;20289;-64
2022/08/07 09:13:18;;;;;;;8.85;7.15;;;;;;;28.68;57.54;94817.72;4952401;29;20309;-60
2022/08/07 09:16:08;;;;;;;11.18;10.13;;;;;;;28.81;56.14;94840.97;5024686;28;20230;-65
2022/08/07 09:18:54;;;;;;;8.65;6.90;;;;;;;29.20;55.66;94858.38;5032446;28;20195;-61
2022/08/07 09:21:46;;;;;;;7.63;6.90;;;;;;;29.36;54.18;94886.38;4982441;28;20260;-61
2022/08/07 09:24:47;;;;;;;7.45;6.75;;;;;;;29.50;54.53;94865.88;5032416;28;20186;-61
2022/08/07 09:27:29;;;;;;;7.22;6.55;;;;;;;29.43;53.62;94875.75;5032127;28;20684;-61
2022/08/07 09:29:56;;;;;;;7.60;6.82;;;;;;;29.68;53.67;94855.91;5032437;28;20189;-64
2022/08/07 09:32:39;;;;;;;6.82;5.78;;;;;;;29.85;51.05;94921.44;5014449;28;20218;-65
2022/08/07 09:35:11;;;;;;;6.65;6.07;;;;;;;30.05;51.79;94892.06;5014355;28;20215;-61
2022/08/07 09:37:53;;;;;;;6.80;6.13;;;;;;;29.88;49.31;94931.44;5032331;28;20210;-61
2022/08/07 09:40:41;;;;;;;6.55;5.63;;;;;;;30.03;48.66;94951.84;5031967;28;20178;-63
2022/08/07 09:43:13;;;;;;;7.03;6.15;;;;;;;30.52;50.51;94886.06;5031985;28;20189;-65
2022/08/07 09:46:03;;;;;;;7.05;6.10;;;;;;;30.90;49.34;94924.53;5032101;28;20209;-62
2022/08/07 09:48:55;;;;;;;6.35;5.57;;;;;;;31.02;49.13;94911.25;5031963;28;20213;-66
2022/08/07 09:51:49;;;;;;;7.30;6.53;;;;;;;31.15;49.64;94887.97;5031997;28;20297;-61
2022/08/07 09:54:23;;;;;;;8.07;5.88;;;;;;;31.12;48.49;94912.13;5031705;28;20244;-61
2022/08/07 10:00:13;;;;;;;6.80;5.93;;;;;;;31.35;46.51;94956.44;5058104;22;20240;-66
2022/08/07 10:02:55;;;;;;;7.70;6.28;;;;;;;31.10;46.56;94931.81;5031846;28;20690;-65
2022/08/07 10:05:42;;;;;;;7.70;6.80;;;;;;;30.71;47.92;94870.75;5031584;28;20189;-63
2022/08/07 10:08:16;;;;;;;6.53;6.00;;;;;;;31.34;48.93;94848.94;5031963;28;20221;-66
2022/08/07 10:11:03;;;;;;;6.53;5.93;;;;;;;31.51;45.77;94946.09;5031431;28;20202;-64
2022/08/07 10:13:50;;;;;;;6.55;5.82;;;;;;;31.58;46.39;94923.00;5031616;28;20249;-61
2022/08/07 10:16:37;;;;;;;14.07;10.93;;;;;;;31.44;45.97;94927.91;5031418;28;20206;-65
2022/08/07 10:19:12;;;;;;;5.60;5.13;;;;;;;31.29;44.78;94943.53;5031497;28;20197;-66
2022/08/07 10:21:53;;;;;;;7.30;5.70;;;;;;;30.74;45.89;94893.91;5031478;28;20590;-65
2022/08/07 10:24:47;;;;;;;6.03;5.53;;;;;;;30.54;46.39;94880.56;5013924;28;20690;-62
2022/08/07 10:27:29;;;;;;;7.00;6.30;;;;;;;30.77;47.22;94856.63;5031259;28;20212;-65
2022/08/07 10:30:06;;;;;;;6.10;5.10;;;;;;;30.91;45.78;94896.44;5031482;28;20186;-61
2022/08/07 10:32:56;;;;;;;15.05;6.15;;;;;;;30.74;47.20;94862.38;5031247;28;20275;-62
2022/08/07 10:38:38;;;;;;;6.22;5.55;;;;;;;32.07;45.77;94901.47;5057107;22;20765;-65
2022/08/07 10:41:42;;;;;;;6.35;5.75;;;;;;;32.10;44.49;94937.00;5033106;28;20224;-65
2022/08/07 10:44:22;;;;;;;6.22;5.72;;;;;;;31.62;46.02;94889.88;4996579;28;20243;-65
2022/08/07 10:47:19;;;;;;;8.43;5.60;;;;;;;31.10;46.66;94874.00;5050656;28;20227;-64
2022/08/07 10:52:48;;;;;;;8.30;5.75;;;;;;;30.77;46.93;94863.69;5060445;22;20287;-63
2022/08/07 10:55:19;;;;;;;6.55;5.97;;;;;;;30.80;47.38;94837.75;5006378;28;20205;-64
2022/08/07 10:58:03;;;;;;;6.00;5.50;;;;;;;30.84;47.23;94844.13;5050758;28;20196;-65
2022/08/07 11:00:35;;;;;;;7.13;5.70;;;;;;;30.19;47.04;94840.81;5050625;28;20231;-64
2022/08/07 11:03:21;;;;;;;7.30;5.50;;;;;;;30.17;46.18;94866.50;5050685;28;20710;-64
2022/08/07 11:06:07;;;;;;;5.72;5.22;;;;;;;30.29;47.18;94835.69;5051006;28;20296;-64
2022/08/07 11:08:44;;;;;;;6.78;6.10;;;;;;;30.09;49.20;94762.78;5050947;28;20275;-66
2022/08/07 11:11:15;;;;;;;6.93;6.20;;;;;;;30.07;48.31;94780.63;5050690;28;20243;-65
2022/08/07 11:13:47;;;;;;;6.40;5.28;;;;;;;29.97;47.87;94805.94;5050726;28;20217;-63
2022/08/07 11:16:18;;;;;;;7.18;5.22;;;;;;;30.53;47.56;94836.97;5050499;28;20224;-63
2022/08/07 11:18:49;;;;;;;8.82;6.25;;;;;;;30.96;47.65;94826.34;5050928;28;20587;-65
2022/08/07 11:21:33;;;;;;;6.93;6.32;;;;;;;31.32;46.41;94869.44;5050644;28;20292;-65
2022/08/07 11:24:05;;;;;;;6.45;5.85;;;;;;;32.00;45.78;94879.06;5032657;28;20200;-63
2022/08/07 11:26:40;;;;;;;6.75;6.15;;;;;;;32.46;45.42;94880.84;5051070;28;20217;-61
2022/08/07 11:29:15;;;;;;;6.05;5.50;;;;;;;32.07;43.70;94942.78;5050313;28;20535;-61
2022/08/07 11:31:50;;;;;;;6.38;5.78;;;;;;;32.01;45.45;94891.19;5050647;28;20314;-62
2022/08/07 11:34:26;;;;;;;6.35;5.85;;;;;;;31.11;47.22;94820.44;5050478;28;20221;-63
2022/08/07 11:37:05;;;;;;;5.80;5.30;;;;;;;31.24;48.06;94797.13;5050518;28;20216;-63
2022/08/07 11:39:53;;;;;;;6.68;5.82;;;;;;;31.55;48.20;94797.31;5050249;28;20189;-62
2022/08/07 11:42:28;;;;;;;7.55;5.50;;;;;;;31.95;45.59;94884.31;5050015;28;20320;-62
2022/08/07 11:45:08;;;;;;;7.75;6.13;;;;;;;31.96;45.79;94878.00;5032388;28;20246;-65
2022/08/07 11:47:39;;;;;;;6.78;6.18;;;;;;;32.16;44.55;94907.81;5050159;28;20197;-61
2022/08/07 11:50:14;;;;;;;9.98;6.03;;;;;;;32.55;42.85;94982.00;5050008;28;20189;-64
2022/08/07 11:52:58;;;;;;;6.47;5.90;;;;;;;32.62;44.03;94950.94;5050254;28;20281;-65
2022/08/07 11:55:54;;;;;;;6.43;5.82;;;;;;;31.88;45.36;94875.81;5050021;28;20213;-65
2022/08/07 12:01:38;;;;;;;7.15;6.45;;;;;;;31.74;48.45;94780.00;5056033;22;20275;-64
2022/08/07 12:04:41;;;;;;;7.38;5.80;;;;;;;31.67;47.16;94826.81;5010655;28;20682;-60
2022/08/07 12:07:21;;;;;;;7.13;6.53;;;;;;;31.94;45.67;94878.25;5053473;28;20241;-62